createdAt,value
2023-07-06T00:01:13.069Z,63.44
2023-07-06T00:03:40.204Z,63.02
2023-07-06T00:06:09.194Z,63.23
2023-07-06T00:08:36.380Z,63.18
2023-07-06T00:11:04.989Z,63.10
2023-07-06T00:13:33.548Z,61.87
2023-07-06T00:16:00.961Z,61.79
2023-07-06T00:18:28.746Z,62.23
2023-07-06T00:20:56.349Z,63.75
2023-07-06T00:23:23.352Z,65.05
2023-07-06T00:25:51.325Z,65.26
2023-07-06T00:28:18.496Z,65.01
2023-07-06T00:30:46.967Z,64.13
2023-07-06T00:33:16.430Z,63.69
2023-07-06T00:35:43.832Z,63.96
2023-07-06T00:38:13.750Z,63.25
2023-07-06T00:40:45.153Z,63.23
2023-07-06T00:43:13.957Z,63.09
2023-07-06T00:45:41.202Z,62.46
2023-07-06T00:48:21.115Z,62.31
2023-07-06T00:50:56.205Z,63.08
2023-07-06T00:53:28.716Z,62.96
2023-07-06T00:55:58.210Z,61.50
2023-07-06T00:58:32.395Z,60.99
2023-07-06T01:01:05.108Z,60.56
2023-07-06T01:03:38.846Z,61.46
2023-07-06T01:06:07.297Z,60.83
2023-07-06T01:08:34.907Z,60.98
2023-07-06T01:11:03.176Z,61.18
2023-07-06T01:13:30.232Z,61.23
2023-07-06T01:16:08.033Z,61.24
2023-07-06T01:18:48.845Z,60.10
2023-07-06T01:21:25.646Z,60.66
2023-07-06T01:24:33.946Z,60.53
2023-07-06T01:27:31.652Z,60.41
2023-07-06T01:30:29.201Z,60.11
2023-07-06T01:33:04.622Z,60.47
2023-07-06T01:35:43.361Z,60.36
2023-07-06T01:38:12.126Z,61.18
2023-07-06T01:40:39.081Z,63.04
2023-07-06T01:43:06.008Z,62.87
2023-07-06T01:45:33.404Z,62.74
2023-07-06T01:48:08.185Z,62.96
2023-07-06T01:50:47.455Z,62.59
2023-07-06T01:53:22.251Z,60.99
2023-07-06T01:55:58.380Z,61.20
2023-07-06T01:58:36.003Z,60.38
2023-07-06T02:01:39.617Z,63.72
2023-07-06T02:04:21.946Z,64.06
2023-07-06T02:07:04.474Z,63.92
2023-07-06T02:09:43.622Z,63.96
2023-07-06T02:12:11.303Z,64.00
2023-07-06T02:14:38.417Z,63.39
2023-07-06T02:17:05.671Z,63.61
2023-07-06T02:19:34.031Z,62.85
2023-07-06T02:22:01.837Z,62.84
2023-07-06T02:24:28.757Z,62.65
2023-07-06T02:26:55.789Z,62.53
2023-07-06T02:29:22.696Z,62.50
2023-07-06T02:31:50.248Z,62.89
2023-07-06T02:34:18.054Z,63.00
2023-07-06T02:36:46.392Z,63.05
2023-07-06T02:39:13.391Z,64.27
2023-07-06T02:41:40.510Z,67.38
2023-07-06T02:44:07.544Z,68.12
2023-07-06T02:46:34.638Z,68.75
2023-07-06T02:49:01.758Z,69.08
2023-07-06T02:51:28.679Z,69.49
2023-07-06T02:53:57.028Z,69.64
2023-07-06T02:56:24.340Z,69.98
2023-07-06T02:58:51.277Z,70.32
2023-07-06T03:01:18.431Z,71.14
2023-07-06T03:03:45.568Z,70.86
2023-07-06T03:06:12.634Z,71.65
2023-07-06T03:08:39.719Z,71.82
2023-07-06T03:11:08.525Z,71.59
2023-07-06T03:17:45.508Z,70.28
2023-07-06T03:20:12.785Z,69.27
2023-07-06T03:22:40.263Z,69.86
2023-07-06T03:25:08.570Z,69.28
2023-07-06T03:27:37.128Z,69.10
2023-07-06T03:30:04.973Z,69.41
2023-07-06T03:32:32.066Z,69.15
2023-07-06T03:34:59.223Z,69.03
2023-07-06T03:37:26.353Z,69.94
2023-07-06T03:39:53.814Z,69.92
2023-07-06T03:42:20.876Z,69.66
2023-07-06T03:44:49.306Z,70.09
2023-07-06T03:47:16.383Z,71.27
2023-07-06T03:49:43.415Z,71.18
2023-07-06T03:52:10.406Z,71.09
2023-07-06T03:54:37.426Z,71.45
2023-07-06T03:57:05.573Z,69.83
2023-07-06T03:59:32.618Z,69.87
2023-07-06T04:02:00.959Z,68.36
2023-07-06T04:04:27.858Z,68.41
2023-07-06T04:06:55.243Z,68.39
2023-07-06T04:09:23.926Z,68.65
2023-07-06T04:11:51.129Z,68.06
2023-07-06T04:14:18.155Z,67.20
2023-07-06T04:16:45.241Z,66.86
2023-07-06T04:19:14.013Z,64.99
2023-07-06T04:21:41.166Z,64.33
2023-07-06T04:24:08.318Z,62.84
2023-07-06T04:26:35.344Z,62.30
2023-07-06T04:29:02.346Z,60.67
2023-07-06T04:31:29.387Z,59.19
2023-07-06T04:33:56.361Z,56.26
2023-07-06T04:36:24.843Z,55.36
2023-07-06T04:38:51.826Z,54.36
2023-07-06T04:41:18.806Z,53.65
2023-07-06T04:43:45.816Z,51.97
2023-07-06T04:46:13.289Z,50.81
2023-07-06T04:48:40.387Z,50.25
2023-07-06T04:51:07.336Z,50.47
2023-07-06T04:53:35.616Z,50.93
2023-07-06T04:56:02.699Z,54.26
2023-07-06T04:58:29.698Z,53.97
2023-07-06T05:00:57.390Z,52.02
2023-07-06T05:03:24.643Z,50.45
2023-07-06T05:05:51.658Z,49.62
2023-07-06T05:08:20.032Z,48.04
2023-07-06T05:10:52.705Z,46.24
2023-07-06T05:13:21.380Z,46.13
2023-07-06T05:15:49.448Z,45.42
2023-07-06T05:18:16.800Z,46.78
2023-07-06T05:20:44.913Z,47.71
2023-07-06T05:23:12.542Z,47.44
2023-07-06T05:25:39.905Z,47.17
2023-07-06T05:28:08.282Z,47.81
2023-07-06T05:30:35.333Z,51.24
2023-07-06T05:33:02.629Z,47.62
2023-07-06T05:35:29.786Z,45.78
2023-07-06T05:37:57.099Z,44.91
2023-07-06T05:40:24.036Z,45.10
2023-07-06T05:42:51.078Z,45.56
2023-07-06T05:45:19.427Z,44.92
2023-07-06T05:47:47.549Z,43.27
2023-07-06T05:50:15.005Z,42.72
2023-07-06T05:52:42.086Z,41.48
2023-07-06T05:55:10.809Z,40.04
2023-07-06T05:57:37.694Z,37.56
2023-07-06T06:00:06.573Z,37.04
2023-07-06T06:02:35.630Z,36.36
2023-07-06T06:05:02.751Z,36.48
2023-07-06T06:07:29.874Z,38.45
2023-07-06T06:09:56.735Z,37.93
2023-07-06T06:12:23.626Z,37.38
2023-07-06T06:14:52.093Z,35.89
2023-07-06T06:17:20.831Z,35.49
2023-07-06T06:19:49.245Z,34.34
2023-07-06T06:22:18.203Z,33.38
2023-07-06T06:24:45.503Z,33.31
2023-07-06T06:27:14.489Z,31.92
2023-07-06T06:29:42.029Z,32.29
2023-07-06T06:32:11.257Z,38.60
2023-07-06T06:34:39.473Z,38.16
2023-07-06T06:37:09.088Z,40.26
2023-07-06T06:39:37.077Z,37.91
2023-07-06T06:42:05.147Z,34.72
2023-07-06T06:44:33.425Z,32.56
2023-07-06T06:47:03.453Z,32.07
2023-07-06T06:49:33.292Z,30.26
2023-07-06T06:52:00.920Z,29.29
2023-07-06T06:54:29.413Z,28.53
2023-07-06T06:56:56.353Z,28.54
2023-07-06T06:59:24.000Z,28.59
2023-07-06T07:01:50.963Z,27.90
2023-07-06T07:04:18.215Z,28.05
2023-07-06T07:06:45.293Z,28.83
2023-07-06T07:09:12.218Z,29.14
2023-07-06T07:11:40.580Z,29.51
2023-07-06T07:14:09.710Z,29.30
2023-07-06T07:16:57.069Z,29.53
2023-07-06T07:19:24.487Z,29.95
2023-07-06T07:21:51.519Z,30.83
2023-07-06T07:24:18.693Z,31.31
2023-07-06T07:26:47.526Z,31.36
2023-07-06T07:29:14.591Z,32.25
2023-07-06T07:31:42.597Z,32.44
2023-07-06T07:34:12.799Z,32.19
2023-07-06T07:36:39.977Z,31.99
2023-07-06T07:39:06.895Z,31.61
2023-07-06T07:41:33.841Z,31.90
2023-07-06T07:44:02.207Z,32.38
2023-07-06T07:46:30.068Z,31.68
2023-07-06T07:48:58.436Z,31.31
2023-07-06T07:51:27.835Z,32.36
2023-07-06T07:53:56.828Z,34.13
2023-07-06T07:56:26.210Z,32.98
2023-07-06T07:58:53.205Z,34.98
2023-07-06T08:01:24.466Z,36.25
2023-07-06T08:03:53.046Z,37.64
2023-07-06T08:06:23.176Z,37.42
2023-07-06T08:08:50.208Z,36.85
2023-07-06T08:11:20.898Z,35.21
2023-07-06T08:13:48.403Z,34.57
2023-07-06T08:16:15.380Z,34.76
2023-07-06T08:18:44.578Z,34.12
2023-07-06T08:21:42.047Z,36.21
2023-07-06T08:23:58.944Z,35.56
2023-07-06T08:26:26.030Z,35.13
2023-07-06T08:28:54.544Z,38.50
2023-07-06T08:31:23.512Z,38.96
2023-07-06T08:33:51.864Z,39.21
2023-07-06T08:36:22.436Z,38.32
2023-07-06T08:39:19.989Z,39.95
2023-07-06T08:41:49.362Z,40.80
2023-07-06T08:44:20.262Z,38.75
2023-07-06T08:46:49.550Z,36.74
2023-07-06T08:49:30.370Z,35.57
2023-07-06T08:52:02.097Z,35.75
2023-07-06T08:54:29.948Z,36.58
2023-07-06T08:56:57.576Z,35.77
2023-07-06T08:59:38.933Z,37.45
2023-07-06T09:02:18.248Z,37.00
2023-07-06T09:04:51.184Z,36.70
2023-07-06T09:07:21.492Z,36.72
2023-07-06T09:09:49.873Z,35.50
2023-07-06T09:12:27.192Z,35.17
2023-07-06T09:14:55.146Z,35.02
2023-07-06T09:17:22.807Z,33.83
2023-07-06T09:19:52.118Z,32.81
2023-07-06T09:22:20.230Z,33.24
2023-07-06T09:24:48.174Z,34.20
2023-07-06T09:27:19.562Z,34.62
2023-07-06T09:29:59.669Z,33.94
2023-07-06T09:32:26.777Z,33.42
2023-07-06T09:35:00.856Z,32.95
2023-07-06T09:37:27.820Z,32.04
2023-07-06T09:40:01.321Z,31.53
2023-07-06T09:42:28.912Z,32.78
2023-07-06T09:44:57.030Z,32.64
2023-07-06T09:47:24.343Z,32.44
2023-07-06T09:49:59.669Z,34.27
2023-07-06T09:52:29.301Z,33.43
2023-07-06T09:55:16.151Z,32.01
2023-07-06T09:57:43.682Z,31.85
2023-07-06T10:00:18.125Z,32.01
2023-07-06T10:03:01.074Z,32.38
2023-07-06T10:05:44.351Z,34.88
2023-07-06T10:08:19.800Z,34.45
2023-07-06T10:11:06.751Z,33.47
2023-07-06T10:13:44.294Z,32.31
2023-07-06T10:16:25.293Z,30.61
2023-07-06T10:19:03.172Z,30.24
2023-07-06T10:21:44.376Z,28.99
2023-07-06T10:24:30.962Z,29.73
2023-07-06T10:27:04.453Z,29.87
2023-07-06T10:29:40.512Z,29.74
2023-07-06T10:32:14.258Z,32.01
2023-07-06T10:34:51.527Z,31.74
2023-07-06T10:37:22.389Z,30.47
2023-07-06T10:40:03.528Z,31.52
2023-07-06T10:42:33.227Z,31.49
2023-07-06T10:45:03.365Z,32.75
2023-07-06T10:47:40.770Z,33.90
2023-07-06T10:50:24.709Z,33.81
2023-07-06T10:53:00.920Z,32.73
2023-07-06T10:55:33.990Z,33.35
2023-07-06T10:58:25.804Z,31.28
2023-07-06T11:00:55.394Z,28.56
2023-07-06T11:03:27.005Z,27.67
2023-07-06T11:05:59.307Z,27.77
2023-07-06T11:09:13.828Z,26.77
2023-07-06T11:11:44.185Z,26.48
2023-07-06T11:14:26.818Z,26.52
2023-07-06T11:17:00.526Z,26.76
2023-07-06T11:19:34.243Z,26.73
2023-07-06T11:22:08.408Z,26.17
2023-07-06T11:24:44.924Z,26.57
2023-07-06T11:27:25.965Z,26.42
2023-07-06T11:30:05.482Z,27.04
2023-07-06T11:32:43.899Z,27.79
2023-07-06T11:35:36.943Z,26.97
2023-07-06T11:38:24.440Z,27.08
2023-07-06T11:41:14.088Z,26.91
2023-07-06T11:44:04.847Z,25.89
2023-07-06T11:46:51.834Z,24.71
2023-07-06T11:49:43.513Z,24.00
2023-07-06T11:52:15.865Z,23.62
2023-07-06T11:54:50.493Z,23.79
2023-07-06T11:57:26.885Z,27.65
2023-07-06T12:00:00.777Z,28.26
2023-07-06T12:02:31.558Z,27.70
2023-07-06T12:04:58.770Z,29.46
2023-07-06T12:07:29.779Z,27.80
2023-07-06T12:10:02.341Z,28.28
2023-07-06T12:12:31.970Z,27.54
2023-07-06T12:15:01.216Z,28.05
2023-07-06T12:17:32.265Z,26.00
2023-07-06T12:20:00.021Z,25.28
2023-07-06T12:22:27.757Z,26.00
2023-07-06T12:24:55.864Z,26.41
2023-07-06T12:27:23.119Z,25.23
2023-07-06T12:30:03.692Z,24.78
2023-07-06T12:32:31.420Z,24.91
2023-07-06T12:34:58.635Z,24.18
2023-07-06T12:37:25.521Z,24.44
2023-07-06T12:39:52.596Z,24.43
2023-07-06T12:42:45.275Z,25.67
2023-07-06T12:45:18.482Z,27.33
2023-07-06T12:47:46.510Z,26.53
2023-07-06T12:50:17.039Z,27.32
2023-07-06T12:52:44.872Z,26.91
2023-07-06T12:55:16.476Z,27.30
2023-07-06T12:57:43.952Z,27.45
2023-07-06T13:00:23.185Z,28.67
2023-07-06T13:02:58.551Z,27.38
2023-07-06T13:05:29.313Z,27.26
2023-07-06T13:07:57.048Z,26.66
2023-07-06T13:10:27.704Z,26.84
2023-07-06T13:12:55.076Z,27.62
2023-07-06T13:15:26.677Z,26.69
2023-07-06T13:17:59.966Z,27.03
2023-07-06T13:20:27.271Z,27.41
2023-07-06T13:22:54.158Z,28.08
2023-07-06T13:25:24.408Z,27.61
2023-07-06T13:27:52.523Z,28.28
2023-07-06T13:30:19.960Z,26.95
2023-07-06T13:32:49.005Z,29.05
2023-07-06T13:35:16.203Z,29.62
2023-07-06T13:37:43.770Z,30.01
2023-07-06T13:40:15.641Z,30.18
2023-07-06T13:42:47.743Z,29.74
2023-07-06T13:45:18.214Z,29.59
2023-07-06T13:47:46.108Z,29.00
2023-07-06T13:50:14.349Z,28.41
2023-07-06T13:52:41.438Z,28.26
2023-07-06T13:55:22.484Z,29.19
2023-07-06T13:57:49.488Z,30.11
2023-07-06T14:00:17.444Z,29.68
2023-07-06T14:02:44.549Z,29.55
2023-07-06T14:05:16.325Z,28.54
2023-07-06T14:07:43.703Z,28.10
2023-07-06T14:10:11.241Z,27.31
2023-07-06T14:12:38.350Z,28.55
2023-07-06T14:15:07.225Z,28.98
2023-07-06T14:17:34.125Z,28.87
2023-07-06T14:20:03.624Z,27.97
2023-07-06T14:22:32.421Z,28.18
2023-07-06T14:25:01.708Z,28.01
2023-07-06T14:27:28.885Z,27.54
2023-07-06T14:29:56.123Z,27.68
2023-07-06T14:32:23.149Z,27.19
2023-07-06T14:34:50.101Z,26.66
2023-07-06T14:37:17.086Z,28.36
2023-07-06T14:39:46.087Z,27.85
2023-07-06T14:42:12.989Z,27.68
2023-07-06T14:44:39.938Z,28.13
2023-07-06T14:47:07.068Z,27.65
2023-07-06T14:49:34.090Z,28.04
2023-07-06T14:52:01.076Z,28.25
2023-07-06T14:54:27.923Z,27.36
2023-07-06T14:56:56.145Z,26.99
2023-07-06T14:59:23.051Z,26.93
2023-07-06T15:01:50.201Z,27.02
2023-07-06T15:04:17.287Z,26.74
2023-07-06T15:06:44.270Z,27.26
2023-07-06T15:09:11.375Z,28.55
2023-07-06T15:11:38.288Z,27.59
2023-07-06T15:14:06.659Z,26.78
2023-07-06T15:16:33.663Z,26.93
2023-07-06T15:19:00.754Z,28.48
2023-07-06T15:21:27.855Z,28.01
2023-07-06T15:23:54.749Z,27.68
2023-07-06T15:26:21.985Z,28.10
2023-07-06T15:28:48.890Z,28.57
2023-07-06T15:31:17.263Z,28.21
2023-07-06T15:33:44.150Z,27.95
2023-07-06T15:36:11.040Z,28.08
2023-07-06T15:38:37.912Z,30.74
2023-07-06T15:41:05.350Z,29.11
2023-07-06T15:43:32.278Z,29.21
2023-07-06T15:45:59.421Z,31.14
2023-07-06T15:48:28.160Z,29.76
2023-07-06T15:50:55.115Z,27.85
2023-07-06T15:53:22.401Z,29.35
2023-07-06T15:55:49.361Z,29.36
2023-07-06T15:58:16.246Z,28.36
2023-07-06T16:00:43.482Z,28.46
2023-07-06T16:03:10.719Z,28.97
2023-07-06T16:05:44.358Z,28.84
2023-07-06T16:08:11.588Z,29.86
2023-07-06T16:10:39.993Z,29.63
2023-07-06T16:13:06.902Z,29.14
2023-07-06T16:15:34.539Z,29.42
2023-07-06T16:18:01.500Z,29.82
2023-07-06T16:23:00.949Z,29.82
2023-07-06T16:25:29.480Z,29.24
2023-07-06T16:27:58.236Z,29.29
2023-07-06T16:30:26.261Z,29.89
2023-07-06T16:32:54.018Z,29.98
2023-07-06T16:35:21.781Z,31.23
2023-07-06T16:37:48.731Z,30.50
2023-07-06T16:40:17.473Z,31.17
2023-07-06T16:42:44.468Z,30.18
2023-07-06T16:45:11.403Z,29.84
2023-07-06T16:47:38.374Z,29.79
2023-07-06T16:50:06.965Z,30.38
2023-07-06T16:52:33.961Z,29.20
2023-07-06T16:55:01.152Z,29.04
2023-07-06T16:57:29.373Z,29.16
2023-07-06T16:59:56.362Z,31.41
2023-07-06T17:02:23.427Z,31.81
2023-07-06T17:04:50.524Z,31.49
2023-07-06T17:07:17.906Z,31.78
2023-07-06T17:09:44.847Z,31.89
2023-07-06T17:12:11.723Z,31.31
2023-07-06T17:14:40.057Z,31.18
2023-07-06T17:17:07.432Z,30.42
2023-07-06T17:19:34.322Z,30.24
2023-07-06T17:22:01.233Z,30.76
2023-07-06T17:24:28.199Z,30.44
2023-07-06T17:26:55.470Z,29.53
2023-07-06T17:29:22.831Z,29.77
2023-07-06T17:31:51.236Z,29.41
2023-07-06T17:34:18.191Z,31.34
2023-07-06T17:36:45.062Z,29.42
2023-07-06T17:39:12.034Z,29.63
2023-07-06T17:41:39.137Z,30.90
2023-07-06T17:44:10.286Z,31.36
2023-07-06T17:46:37.399Z,31.50
2023-07-06T17:49:05.804Z,30.66
2023-07-06T17:51:33.307Z,31.54
2023-07-06T17:54:00.238Z,32.10
2023-07-06T17:56:27.477Z,31.37
2023-07-06T17:58:54.421Z,31.12
2023-07-06T18:01:21.373Z,32.17
2023-07-06T18:03:48.650Z,32.22
2023-07-06T18:07:08.626Z,32.06
2023-07-06T18:09:35.971Z,31.26
2023-07-06T18:12:03.840Z,31.75
2023-07-06T18:14:31.967Z,33.63
2023-07-06T18:17:00.306Z,33.04
2023-07-06T18:19:29.971Z,32.37
2023-07-06T18:21:57.983Z,33.17
2023-07-06T18:24:26.423Z,32.99
2023-07-06T18:26:54.218Z,32.50
2023-07-06T18:29:21.275Z,32.85
2023-07-06T18:31:48.959Z,34.01
2023-07-06T18:34:17.600Z,34.12
2023-07-06T18:36:44.761Z,34.04
2023-07-06T18:39:12.101Z,33.65
2023-07-06T18:41:40.604Z,34.84
2023-07-06T18:44:09.195Z,33.93
2023-07-06T18:46:36.122Z,35.29
2023-07-06T18:49:03.704Z,34.91
2023-07-06T18:51:30.639Z,35.55
2023-07-06T18:53:57.965Z,35.73
2023-07-06T18:56:25.071Z,34.81
2023-07-06T18:58:53.536Z,35.77
2023-07-06T19:01:21.056Z,35.72
2023-07-06T19:03:48.068Z,36.37
2023-07-06T19:06:18.823Z,35.54
2023-07-06T19:08:47.836Z,35.06
2023-07-06T19:11:15.611Z,35.21
2023-07-06T19:13:46.549Z,36.46
2023-07-06T19:16:16.369Z,36.53
2023-07-06T19:18:44.418Z,36.57
2023-07-06T19:21:11.673Z,36.83
2023-07-06T19:23:38.541Z,36.59
2023-07-06T19:26:08.936Z,36.66
2023-07-06T19:28:36.539Z,37.02
2023-07-06T19:31:03.890Z,37.82
2023-07-06T19:33:32.336Z,38.55
2023-07-06T19:35:59.599Z,39.61
2023-07-06T19:38:27.381Z,40.52
2023-07-06T19:40:56.485Z,40.54
2023-07-06T19:43:24.464Z,39.45
2023-07-06T19:45:51.792Z,40.79
2023-07-06T19:48:20.108Z,40.58
2023-07-06T19:50:49.156Z,39.85
2023-07-06T19:53:16.296Z,40.32
2023-07-06T19:55:46.471Z,40.80
2023-07-06T19:58:13.790Z,41.23
2023-07-06T20:00:41.069Z,41.93
2023-07-06T20:03:08.279Z,41.60
2023-07-06T20:05:36.140Z,41.25
2023-07-06T20:08:05.498Z,41.20
2023-07-06T20:10:33.198Z,41.52
2023-07-06T20:13:00.546Z,44.81
2023-07-06T20:15:27.783Z,46.42
2023-07-06T20:17:54.860Z,45.71
2023-07-06T20:20:22.405Z,47.11
2023-07-06T20:22:49.382Z,47.49
2023-07-06T20:25:18.668Z,47.52
2023-07-06T20:27:45.700Z,45.93
2023-07-06T20:30:12.916Z,48.81
2023-07-06T20:32:39.943Z,52.26
2023-07-06T20:35:08.032Z,55.64
2023-07-06T20:37:35.865Z,54.84
2023-07-06T20:40:04.200Z,54.32
2023-07-06T20:42:32.488Z,55.10
2023-07-06T20:44:59.385Z,56.88
2023-07-06T20:47:26.640Z,56.65
2023-07-06T20:49:53.632Z,55.89
2023-07-06T20:52:25.243Z,57.08
2023-07-06T20:54:52.368Z,58.89
2023-07-06T20:57:19.542Z,59.49
2023-07-06T20:59:48.291Z,59.08
2023-07-06T21:02:16.667Z,59.06
2023-07-06T21:04:44.020Z,58.81
2023-07-06T21:07:11.130Z,58.71
2023-07-06T21:09:38.390Z,59.17
2023-07-06T21:12:07.158Z,58.41
2023-07-06T21:14:34.409Z,58.87
2023-07-06T21:17:03.202Z,58.59
2023-07-06T21:19:30.248Z,58.58
2023-07-06T21:21:57.386Z,59.13
2023-07-06T21:24:24.351Z,59.36
2023-07-06T21:26:52.267Z,60.84
2023-07-06T21:29:19.397Z,61.43
2023-07-06T21:31:46.755Z,61.63
2023-07-06T21:34:16.803Z,59.92
2023-07-06T21:36:44.549Z,60.97
2023-07-06T21:39:13.107Z,61.11
2023-07-06T21:41:40.478Z,60.72
2023-07-06T21:44:07.779Z,60.99
2023-07-06T21:46:35.006Z,60.96
2023-07-06T21:49:02.299Z,62.14
2023-07-06T21:51:30.986Z,62.78
2023-07-06T21:53:58.179Z,62.07
2023-07-06T21:56:27.229Z,61.83
2023-07-06T21:58:54.435Z,62.50
2023-07-06T22:01:22.172Z,62.27
2023-07-06T22:03:49.353Z,62.38
2023-07-06T22:06:19.985Z,61.89
2023-07-06T22:08:49.550Z,62.29
2023-07-06T22:11:21.064Z,61.52
2023-07-06T22:13:48.265Z,61.11
2023-07-06T22:16:16.832Z,60.35
2023-07-06T22:18:44.153Z,61.66
2023-07-06T22:21:12.619Z,62.29
2023-07-06T22:23:39.803Z,62.24
2023-07-06T22:26:09.294Z,62.56
2023-07-06T22:28:37.454Z,63.70
2023-07-06T22:31:07.140Z,63.91
2023-07-06T22:33:37.106Z,63.57
2023-07-06T22:36:05.292Z,60.98
2023-07-06T22:48:39.307Z,63.75
2023-07-06T22:58:37.467Z,65.90
2023-07-06T22:58:59.329Z,65.50
2023-07-06T23:01:48.458Z,66.31
2023-07-06T23:04:37.236Z,66.30
2023-07-06T23:07:05.054Z,67.46
2023-07-06T23:09:32.467Z,67.80
2023-07-06T23:12:00.602Z,67.01
2023-07-06T23:14:28.238Z,67.39
2023-07-06T23:16:55.773Z,68.10
2023-07-06T23:19:22.957Z,67.90
2023-07-06T23:21:51.915Z,67.08
2023-07-06T23:24:19.172Z,66.75
2023-07-06T23:26:46.480Z,67.47
2023-07-06T23:29:13.764Z,68.19
2023-07-06T23:31:40.817Z,68.23
2023-07-06T23:34:07.910Z,68.81
2023-07-06T23:36:36.022Z,68.55
2023-07-06T23:39:04.629Z,68.56
2023-07-06T23:41:31.828Z,68.62
2023-07-06T23:43:59.027Z,68.34
2023-07-06T23:46:26.228Z,68.55
2023-07-06T23:48:53.997Z,68.27
2023-07-06T23:51:24.512Z,68.74
2023-07-06T23:53:51.681Z,68.49
2023-07-06T23:56:20.023Z,67.91
2023-07-06T23:58:46.881Z,68.30
